sensor_id;sensor_type;location;lat;lon;timestamp;P1;durP1;ratioP1;P2;durP2;ratioP2
17686;SDS011;8962;52.538;13.266;2023-04-06T00:01:55;8.82;;;5.30;;
17686;SDS011;8962;52.538;13.266;2023-04-06T00:04:25;9.40;;;5.95;;
17686;SDS011;8962;52.538;13.266;2023-04-06T00:06:52;9.88;;;5.90;;
17686;SDS011;8962;52.538;13.266;2023-04-06T00:09:19;8.93;;;5.50;;
17686;SDS011;8962;52.538;13.266;2023-04-06T00:11:46;8.50;;;6.00;;
17686;SDS011;8962;52.538;13.266;2023-04-06T00:14:14;9.50;;;5.95;;
17686;SDS011;8962;52.538;13.266;2023-04-06T00:16:42;10.27;;;5.57;;
17686;SDS011;8962;52.538;13.266;2023-04-06T00:19:09;11.32;;;6.35;;
17686;SDS011;8962;52.538;13.266;2023-04-06T00:21:38;10.13;;;5.97;;
17686;SDS011;8962;52.538;13.266;2023-04-06T00:24:08;11.23;;;5.50;;
17686;SDS011;8962;52.538;13.266;2023-04-06T00:26:35;11.13;;;5.85;;
17686;SDS011;8962;52.538;13.266;2023-04-06T00:29:03;11.90;;;6.03;;
17686;SDS011;8962;52.538;13.266;2023-04-06T00:31:30;12.32;;;6.28;;
17686;SDS011;8962;52.538;13.266;2023-04-06T00:33:57;12.65;;;6.00;;
17686;SDS011;8962;52.538;13.266;2023-04-06T00:36:25;10.68;;;6.15;;
17686;SDS011;8962;52.538;13.266;2023-04-06T00:38:55;8.93;;;5.50;;
17686;SDS011;8962;52.538;13.266;2023-04-06T00:41:23;8.25;;;5.70;;
17686;SDS011;8962;52.538;13.266;2023-04-06T00:43:50;8.80;;;5.00;;
17686;SDS011;8962;52.538;13.266;2023-04-06T00:46:20;8.23;;;4.90;;
17686;SDS011;8962;52.538;13.266;2023-04-06T00:48:48;11.10;;;5.32;;
17686;SDS011;8962;52.538;13.266;2023-04-06T00:51:18;8.73;;;5.32;;
17686;SDS011;8962;52.538;13.266;2023-04-06T00:53:45;7.53;;;4.95;;
17686;SDS011;8962;52.538;13.266;2023-04-06T00:56:16;10.10;;;5.43;;
17686;SDS011;8962;52.538;13.266;2023-04-06T00:58:50;9.60;;;4.72;;
17686;SDS011;8962;52.538;13.266;2023-04-06T01:01:18;8.88;;;5.00;;
17686;SDS011;8962;52.538;13.266;2023-04-06T01:03:55;9.45;;;4.82;;
17686;SDS011;8962;52.538;13.266;2023-04-06T01:06:25;8.73;;;4.63;;
17686;SDS011;8962;52.538;13.266;2023-04-06T01:09:03;10.50;;;4.50;;
17686;SDS011;8962;52.538;13.266;2023-04-06T01:11:32;8.52;;;4.72;;
17686;SDS011;8962;52.538;13.266;2023-04-06T01:14:01;11.65;;;5.00;;
17686;SDS011;8962;52.538;13.266;2023-04-06T01:16:52;10.80;;;5.13;;
17686;SDS011;8962;52.538;13.266;2023-04-06T01:19:24;9.10;;;4.68;;
17686;SDS011;8962;52.538;13.266;2023-04-06T01:21:53;7.93;;;4.28;;
17686;SDS011;8962;52.538;13.266;2023-04-06T01:24:30;7.88;;;4.47;;
17686;SDS011;8962;52.538;13.266;2023-04-06T01:27:30;7.60;;;4.18;;
17686;SDS011;8962;52.538;13.266;2023-04-06T01:30:00;9.10;;;4.57;;
17686;SDS011;8962;52.538;13.266;2023-04-06T01:32:57;9.40;;;4.30;;
17686;SDS011;8962;52.538;13.266;2023-04-06T01:35:38;7.40;;;4.68;;
17686;SDS011;8962;52.538;13.266;2023-04-06T01:38:15;8.55;;;4.63;;
17686;SDS011;8962;52.538;13.266;2023-04-06T01:40:45;9.23;;;4.53;;
17686;SDS011;8962;52.538;13.266;2023-04-06T01:43:18;10.07;;;4.80;;
17686;SDS011;8962;52.538;13.266;2023-04-06T01:45:59;9.63;;;4.72;;
17686;SDS011;8962;52.538;13.266;2023-04-06T01:48:31;8.27;;;4.75;;
17686;SDS011;8962;52.538;13.266;2023-04-06T01:51:04;9.45;;;4.60;;
17686;SDS011;8962;52.538;13.266;2023-04-06T01:53:35;8.30;;;5.15;;
17686;SDS011;8962;52.538;13.266;2023-04-06T01:56:07;7.35;;;4.55;;
17686;SDS011;8962;52.538;13.266;2023-04-06T01:58:38;6.95;;;4.28;;
17686;SDS011;8962;52.538;13.266;2023-04-06T02:01:09;7.30;;;4.78;;
17686;SDS011;8962;52.538;13.266;2023-04-06T02:03:49;8.15;;;4.60;;
17686;SDS011;8962;52.538;13.266;2023-04-06T02:06:16;8.63;;;4.38;;
17686;SDS011;8962;52.538;13.266;2023-04-06T02:08:44;7.65;;;4.82;;
17686;SDS011;8962;52.538;13.266;2023-04-06T02:11:13;6.82;;;4.82;;
17686;SDS011;8962;52.538;13.266;2023-04-06T02:13:45;7.80;;;5.10;;
17686;SDS011;8962;52.538;13.266;2023-04-06T02:16:15;10.48;;;5.32;;
17686;SDS011;8962;52.538;13.266;2023-04-06T02:18:46;10.07;;;5.22;;
17686;SDS011;8962;52.538;13.266;2023-04-06T02:21:13;11.57;;;5.47;;
17686;SDS011;8962;52.538;13.266;2023-04-06T02:23:45;9.15;;;5.53;;
17686;SDS011;8962;52.538;13.266;2023-04-06T02:26:16;9.18;;;5.40;;
17686;SDS011;8962;52.538;13.266;2023-04-06T02:28:43;11.38;;;5.68;;
17686;SDS011;8962;52.538;13.266;2023-04-06T02:31:12;9.57;;;5.65;;
17686;SDS011;8962;52.538;13.266;2023-04-06T02:33:41;8.77;;;5.07;;
17686;SDS011;8962;52.538;13.266;2023-04-06T02:36:10;9.02;;;5.45;;
17686;SDS011;8962;52.538;13.266;2023-04-06T02:38:38;8.55;;;5.22;;
17686;SDS011;8962;52.538;13.266;2023-04-06T02:41:05;8.52;;;5.28;;
17686;SDS011;8962;52.538;13.266;2023-04-06T02:43:34;8.18;;;5.28;;
17686;SDS011;8962;52.538;13.266;2023-04-06T02:46:15;9.93;;;5.10;;
17686;SDS011;8962;52.538;13.266;2023-04-06T02:48:43;13.02;;;6.22;;
17686;SDS011;8962;52.538;13.266;2023-04-06T02:51:12;9.40;;;5.53;;
17686;SDS011;8962;52.538;13.266;2023-04-06T02:53:45;8.43;;;5.57;;
17686;SDS011;8962;52.538;13.266;2023-04-06T02:56:13;9.90;;;5.78;;
17686;SDS011;8962;52.538;13.266;2023-04-06T02:58:49;7.95;;;5.85;;
17686;SDS011;8962;52.538;13.266;2023-04-06T03:01:19;8.05;;;5.65;;
17686;SDS011;8962;52.538;13.266;2023-04-06T03:03:52;9.48;;;5.50;;
17686;SDS011;8962;52.538;13.266;2023-04-06T03:06:24;11.73;;;5.88;;
17686;SDS011;8962;52.538;13.266;2023-04-06T03:08:55;8.02;;;5.60;;
17686;SDS011;8962;52.538;13.266;2023-04-06T03:11:23;9.82;;;5.28;;
17686;SDS011;8962;52.538;13.266;2023-04-06T03:13:55;8.18;;;5.78;;
17686;SDS011;8962;52.538;13.266;2023-04-06T03:16:22;11.25;;;6.10;;
17686;SDS011;8962;52.538;13.266;2023-04-06T03:18:51;9.88;;;5.88;;
17686;SDS011;8962;52.538;13.266;2023-04-06T03:21:20;11.07;;;6.03;;
17686;SDS011;8962;52.538;13.266;2023-04-06T03:23:50;11.85;;;6.10;;
17686;SDS011;8962;52.538;13.266;2023-04-06T03:26:19;11.68;;;6.38;;
17686;SDS011;8962;52.538;13.266;2023-04-06T03:28:50;12.30;;;6.35;;
17686;SDS011;8962;52.538;13.266;2023-04-06T03:31:22;11.95;;;5.90;;
17686;SDS011;8962;52.538;13.266;2023-04-06T03:34:06;9.40;;;6.40;;
17686;SDS011;8962;52.538;13.266;2023-04-06T03:36:36;11.40;;;6.47;;
17686;SDS011;8962;52.538;13.266;2023-04-06T03:39:05;9.45;;;5.90;;
17686;SDS011;8962;52.538;13.266;2023-04-06T03:41:38;9.88;;;6.43;;
17686;SDS011;8962;52.538;13.266;2023-04-06T03:44:25;14.13;;;7.22;;
17686;SDS011;8962;52.538;13.266;2023-04-06T03:46:54;13.35;;;6.65;;
17686;SDS011;8962;52.538;13.266;2023-04-06T03:49:22;12.88;;;6.55;;
17686;SDS011;8962;52.538;13.266;2023-04-06T03:51:52;11.93;;;6.68;;
17686;SDS011;8962;52.538;13.266;2023-04-06T03:54:20;10.55;;;6.22;;
17686;SDS011;8962;52.538;13.266;2023-04-06T03:56:47;11.82;;;6.95;;
17686;SDS011;8962;52.538;13.266;2023-04-06T03:59:16;14.35;;;6.72;;
17686;SDS011;8962;52.538;13.266;2023-04-06T04:01:44;9.35;;;6.47;;
17686;SDS011;8962;52.538;13.266;2023-04-06T04:04:13;13.02;;;6.40;;
17686;SDS011;8962;52.538;13.266;2023-04-06T04:06:40;9.55;;;6.32;;
17686;SDS011;8962;52.538;13.266;2023-04-06T04:09:08;11.88;;;7.18;;
17686;SDS011;8962;52.538;13.266;2023-04-06T04:11:35;11.50;;;6.38;;
17686;SDS011;8962;52.538;13.266;2023-04-06T04:14:03;11.02;;;6.38;;
17686;SDS011;8962;52.538;13.266;2023-04-06T04:16:31;14.20;;;6.55;;
17686;SDS011;8962;52.538;13.266;2023-04-06T04:18:58;9.40;;;6.32;;
17686;SDS011;8962;52.538;13.266;2023-04-06T04:21:28;12.52;;;6.82;;
17686;SDS011;8962;52.538;13.266;2023-04-06T04:23:59;10.05;;;6.53;;
17686;SDS011;8962;52.538;13.266;2023-04-06T04:26:26;14.05;;;6.18;;
17686;SDS011;8962;52.538;13.266;2023-04-06T04:28:53;10.90;;;7.03;;
17686;SDS011;8962;52.538;13.266;2023-04-06T04:31:21;13.43;;;6.72;;
17686;SDS011;8962;52.538;13.266;2023-04-06T04:33:52;13.40;;;6.07;;
17686;SDS011;8962;52.538;13.266;2023-04-06T04:36:26;12.50;;;6.38;;
17686;SDS011;8962;52.538;13.266;2023-04-06T04:38:56;13.88;;;6.22;;
17686;SDS011;8962;52.538;13.266;2023-04-06T04:41:28;9.25;;;6.32;;
17686;SDS011;8962;52.538;13.266;2023-04-06T04:43:56;12.52;;;6.18;;
17686;SDS011;8962;52.538;13.266;2023-04-06T04:46:26;13.45;;;7.00;;
17686;SDS011;8962;52.538;13.266;2023-04-06T04:48:54;9.40;;;6.18;;
17686;SDS011;8962;52.538;13.266;2023-04-06T04:51:21;13.10;;;6.32;;
17686;SDS011;8962;52.538;13.266;2023-04-06T04:54:08;13.38;;;6.68;;
17686;SDS011;8962;52.538;13.266;2023-04-06T04:56:36;11.57;;;6.45;;
17686;SDS011;8962;52.538;13.266;2023-04-06T04:59:27;16.60;;;7.05;;
17686;SDS011;8962;52.538;13.266;2023-04-06T05:02:01;10.88;;;6.78;;
17686;SDS011;8962;52.538;13.266;2023-04-06T05:04:38;11.77;;;6.50;;
17686;SDS011;8962;52.538;13.266;2023-04-06T05:07:09;19.42;;;6.43;;
17686;SDS011;8962;52.538;13.266;2023-04-06T05:09:41;14.88;;;6.68;;
17686;SDS011;8962;52.538;13.266;2023-04-06T05:12:09;12.05;;;7.25;;
17686;SDS011;8962;52.538;13.266;2023-04-06T05:14:47;14.18;;;7.85;;
17686;SDS011;8962;52.538;13.266;2023-04-06T05:17:17;13.10;;;7.32;;
17686;SDS011;8962;52.538;13.266;2023-04-06T05:19:46;15.32;;;7.85;;
17686;SDS011;8962;52.538;13.266;2023-04-06T05:22:19;11.82;;;7.47;;
17686;SDS011;8962;52.538;13.266;2023-04-06T05:24:57;16.40;;;7.05;;
17686;SDS011;8962;52.538;13.266;2023-04-06T05:27:25;15.43;;;7.63;;
17686;SDS011;8962;52.538;13.266;2023-04-06T05:29:53;12.18;;;7.28;;
17686;SDS011;8962;52.538;13.266;2023-04-06T05:32:22;13.95;;;8.40;;
17686;SDS011;8962;52.538;13.266;2023-04-06T05:34:51;14.52;;;8.18;;
17686;SDS011;8962;52.538;13.266;2023-04-06T05:37:18;13.70;;;8.23;;
17686;SDS011;8962;52.538;13.266;2023-04-06T05:39:46;13.98;;;8.60;;
17686;SDS011;8962;52.538;13.266;2023-04-06T05:42:15;18.80;;;8.27;;
17686;SDS011;8962;52.538;13.266;2023-04-06T05:44:55;14.48;;;8.60;;
17686;SDS011;8962;52.538;13.266;2023-04-06T05:47:22;12.75;;;8.60;;
17686;SDS011;8962;52.538;13.266;2023-04-06T05:50:01;12.77;;;8.45;;
17686;SDS011;8962;52.538;13.266;2023-04-06T05:52:35;13.93;;;8.55;;
17686;SDS011;8962;52.538;13.266;2023-04-06T05:55:03;11.40;;;8.10;;
17686;SDS011;8962;52.538;13.266;2023-04-06T05:57:33;13.32;;;8.95;;
17686;SDS011;8962;52.538;13.266;2023-04-06T06:00:02;14.65;;;8.63;;
17686;SDS011;8962;52.538;13.266;2023-04-06T06:02:37;16.17;;;9.50;;
17686;SDS011;8962;52.538;13.266;2023-04-06T06:05:12;14.85;;;8.70;;
17686;SDS011;8962;52.538;13.266;2023-04-06T06:07:41;13.45;;;8.57;;
17686;SDS011;8962;52.538;13.266;2023-04-06T06:10:10;14.18;;;9.00;;
17686;SDS011;8962;52.538;13.266;2023-04-06T06:12:41;14.23;;;8.57;;
17686;SDS011;8962;52.538;13.266;2023-04-06T06:15:08;12.88;;;8.45;;
17686;SDS011;8962;52.538;13.266;2023-04-06T06:17:41;14.15;;;8.90;;
17686;SDS011;8962;52.538;13.266;2023-04-06T06:20:10;12.70;;;8.70;;
17686;SDS011;8962;52.538;13.266;2023-04-06T06:22:38;14.38;;;8.43;;
17686;SDS011;8962;52.538;13.266;2023-04-06T06:25:10;13.00;;;8.85;;
17686;SDS011;8962;52.538;13.266;2023-04-06T06:27:37;14.00;;;8.85;;
17686;SDS011;8962;52.538;13.266;2023-04-06T06:30:08;15.93;;;9.82;;
17686;SDS011;8962;52.538;13.266;2023-04-06T06:32:39;16.35;;;9.98;;
17686;SDS011;8962;52.538;13.266;2023-04-06T06:35:08;15.38;;;9.32;;
17686;SDS011;8962;52.538;13.266;2023-04-06T06:37:36;14.27;;;9.55;;
17686;SDS011;8962;52.538;13.266;2023-04-06T06:40:04;14.93;;;9.63;;
17686;SDS011;8962;52.538;13.266;2023-04-06T06:42:34;13.98;;;9.77;;
17686;SDS011;8962;52.538;13.266;2023-04-06T06:45:15;20.05;;;10.00;;
17686;SDS011;8962;52.538;13.266;2023-04-06T06:47:43;16.33;;;9.07;;
17686;SDS011;8962;52.538;13.266;2023-04-06T06:50:10;13.55;;;9.63;;
17686;SDS011;8962;52.538;13.266;2023-04-06T06:52:37;16.73;;;9.90;;
17686;SDS011;8962;52.538;13.266;2023-04-06T06:55:06;17.90;;;9.88;;
17686;SDS011;8962;52.538;13.266;2023-04-06T06:57:35;15.65;;;10.13;;
17686;SDS011;8962;52.538;13.266;2023-04-06T07:00:04;14.90;;;9.93;;
17686;SDS011;8962;52.538;13.266;2023-04-06T07:02:35;12.73;;;9.07;;
17686;SDS011;8962;52.538;13.266;2023-04-06T07:05:02;14.25;;;9.50;;
17686;SDS011;8962;52.538;13.266;2023-04-06T07:07:31;15.02;;;9.30;;
17686;SDS011;8962;52.538;13.266;2023-04-06T07:09:59;15.75;;;9.50;;
17686;SDS011;8962;52.538;13.266;2023-04-06T07:12:27;13.70;;;8.73;;
17686;SDS011;8962;52.538;13.266;2023-04-06T07:14:55;13.48;;;8.57;;
17686;SDS011;8962;52.538;13.266;2023-04-06T07:17:22;12.18;;;9.07;;
17686;SDS011;8962;52.538;13.266;2023-04-06T07:19:54;13.95;;;9.07;;
17686;SDS011;8962;52.538;13.266;2023-04-06T07:22:21;13.13;;;8.30;;
17686;SDS011;8962;52.538;13.266;2023-04-06T07:24:48;11.38;;;8.15;;
17686;SDS011;8962;52.538;13.266;2023-04-06T07:27:16;11.40;;;7.90;;
17686;SDS011;8962;52.538;13.266;2023-04-06T07:29:44;14.45;;;8.52;;
17686;SDS011;8962;52.538;13.266;2023-04-06T07:32:12;15.35;;;8.15;;
17686;SDS011;8962;52.538;13.266;2023-04-06T07:34:40;13.98;;;8.57;;
17686;SDS011;8962;52.538;13.266;2023-04-06T07:37:09;15.98;;;8.00;;
17686;SDS011;8962;52.538;13.266;2023-04-06T07:39:36;12.07;;;7.40;;
17686;SDS011;8962;52.538;13.266;2023-04-06T07:42:03;12.55;;;7.22;;
17686;SDS011;8962;52.538;13.266;2023-04-06T07:44:31;9.18;;;6.90;;
17686;SDS011;8962;52.538;13.266;2023-04-06T07:46:59;16.00;;;7.20;;
17686;SDS011;8962;52.538;13.266;2023-04-06T07:49:26;9.35;;;6.10;;
17686;SDS011;8962;52.538;13.266;2023-04-06T07:51:55;10.57;;;5.85;;
17686;SDS011;8962;52.538;13.266;2023-04-06T07:54:24;11.85;;;6.05;;
17686;SDS011;8962;52.538;13.266;2023-04-06T07:56:52;10.65;;;6.30;;
17686;SDS011;8962;52.538;13.266;2023-04-06T07:59:19;12.45;;;5.82;;
17686;SDS011;8962;52.538;13.266;2023-04-06T08:01:46;12.70;;;6.43;;
17686;SDS011;8962;52.538;13.266;2023-04-06T08:04:14;8.48;;;5.30;;
17686;SDS011;8962;52.538;13.266;2023-04-06T08:06:41;8.77;;;5.35;;
17686;SDS011;8962;52.538;13.266;2023-04-06T08:09:08;9.60;;;4.88;;
17686;SDS011;8962;52.538;13.266;2023-04-06T08:11:38;8.35;;;5.47;;
17686;SDS011;8962;52.538;13.266;2023-04-06T08:14:05;11.18;;;5.07;;
17686;SDS011;8962;52.538;13.266;2023-04-06T08:16:33;7.68;;;4.90;;
17686;SDS011;8962;52.538;13.266;2023-04-06T08:19:00;6.22;;;4.00;;
17686;SDS011;8962;52.538;13.266;2023-04-06T08:21:27;8.02;;;4.32;;
17686;SDS011;8962;52.538;13.266;2023-04-06T08:23:54;6.88;;;4.25;;
17686;SDS011;8962;52.538;13.266;2023-04-06T08:26:22;9.07;;;4.25;;
17686;SDS011;8962;52.538;13.266;2023-04-06T08:28:50;8.77;;;4.28;;
17686;SDS011;8962;52.538;13.266;2023-04-06T08:31:18;6.88;;;4.28;;
17686;SDS011;8962;52.538;13.266;2023-04-06T08:33:45;6.07;;;3.83;;
17686;SDS011;8962;52.538;13.266;2023-04-06T08:36:13;6.28;;;4.25;;
17686;SDS011;8962;52.538;13.266;2023-04-06T08:38:43;9.60;;;4.57;;
17686;SDS011;8962;52.538;13.266;2023-04-06T08:41:11;8.32;;;4.03;;
17686;SDS011;8962;52.538;13.266;2023-04-06T08:43:41;7.75;;;3.65;;
17686;SDS011;8962;52.538;13.266;2023-04-06T08:46:11;8.82;;;3.40;;
17686;SDS011;8962;52.538;13.266;2023-04-06T08:48:40;5.50;;;3.47;;
17686;SDS011;8962;52.538;13.266;2023-04-06T08:51:09;5.35;;;3.50;;
17686;SDS011;8962;52.538;13.266;2023-04-06T08:53:36;5.28;;;3.22;;
17686;SDS011;8962;52.538;13.266;2023-04-06T08:56:04;6.93;;;3.88;;
17686;SDS011;8962;52.538;13.266;2023-04-06T08:58:32;7.20;;;4.15;;
17686;SDS011;8962;52.538;13.266;2023-04-06T09:01:02;5.15;;;3.65;;
17686;SDS011;8962;52.538;13.266;2023-04-06T09:03:35;5.68;;;3.22;;
17686;SDS011;8962;52.538;13.266;2023-04-06T09:06:04;5.90;;;3.13;;
17686;SDS011;8962;52.538;13.266;2023-04-06T09:08:33;5.88;;;2.80;;
17686;SDS011;8962;52.538;13.266;2023-04-06T09:11:00;6.07;;;3.35;;
17686;SDS011;8962;52.538;13.266;2023-04-06T09:13:28;7.78;;;3.50;;
17686;SDS011;8962;52.538;13.266;2023-04-06T09:15:59;5.55;;;4.10;;
17686;SDS011;8962;52.538;13.266;2023-04-06T09:18:27;5.80;;;3.92;;
17686;SDS011;8962;52.538;13.266;2023-04-06T09:20:58;6.05;;;3.03;;
17686;SDS011;8962;52.538;13.266;2023-04-06T09:23:27;5.50;;;3.40;;
17686;SDS011;8962;52.538;13.266;2023-04-06T09:26:04;8.43;;;3.60;;
17686;SDS011;8962;52.538;13.266;2023-04-06T09:28:40;6.93;;;3.45;;
17686;SDS011;8962;52.538;13.266;2023-04-06T09:31:12;5.20;;;3.00;;
17686;SDS011;8962;52.538;13.266;2023-04-06T09:33:40;7.53;;;3.60;;
17686;SDS011;8962;52.538;13.266;2023-04-06T09:36:10;6.00;;;3.17;;
17686;SDS011;8962;52.538;13.266;2023-04-06T09:38:50;6.32;;;3.65;;
17686;SDS011;8962;52.538;13.266;2023-04-06T09:41:22;6.85;;;4.20;;
17686;SDS011;8962;52.538;13.266;2023-04-06T09:43:52;6.95;;;3.67;;
17686;SDS011;8962;52.538;13.266;2023-04-06T09:46:30;6.72;;;3.75;;
17686;SDS011;8962;52.538;13.266;2023-04-06T09:48:59;7.40;;;3.55;;
17686;SDS011;8962;52.538;13.266;2023-04-06T09:51:30;4.75;;;3.25;;
17686;SDS011;8962;52.538;13.266;2023-04-06T09:54:01;4.10;;;3.28;;
17686;SDS011;8962;52.538;13.266;2023-04-06T09:56:31;9.00;;;3.75;;
17686;SDS011;8962;52.538;13.266;2023-04-06T09:59:10;5.60;;;3.60;;
17686;SDS011;8962;52.538;13.266;2023-04-06T10:01:40;4.03;;;3.17;;
17686;SDS011;8962;52.538;13.266;2023-04-06T10:04:13;5.13;;;3.20;;
17686;SDS011;8962;52.538;13.266;2023-04-06T10:06:52;5.15;;;2.80;;
17686;SDS011;8962;52.538;13.266;2023-04-06T10:09:22;7.47;;;3.80;;
17686;SDS011;8962;52.538;13.266;2023-04-06T10:12:01;9.55;;;4.93;;
17686;SDS011;8962;52.538;13.266;2023-04-06T10:14:30;9.63;;;5.10;;
17686;SDS011;8962;52.538;13.266;2023-04-06T10:16:59;6.47;;;3.88;;
17686;SDS011;8962;52.538;13.266;2023-04-06T10:19:28;6.18;;;2.78;;
17686;SDS011;8962;52.538;13.266;2023-04-06T10:22:03;8.75;;;4.55;;
17686;SDS011;8962;52.538;13.266;2023-04-06T10:24:32;7.00;;;3.47;;
17686;SDS011;8962;52.538;13.266;2023-04-06T10:27:01;4.32;;;2.83;;
17686;SDS011;8962;52.538;13.266;2023-04-06T10:29:40;5.72;;;3.80;;
17686;SDS011;8962;52.538;13.266;2023-04-06T10:32:10;3.70;;;2.65;;
17686;SDS011;8962;52.538;13.266;2023-04-06T10:34:37;5.60;;;3.30;;
17686;SDS011;8962;52.538;13.266;2023-04-06T10:37:14;6.43;;;3.10;;
17686;SDS011;8962;52.538;13.266;2023-04-06T10:39:47;4.18;;;3.00;;
17686;SDS011;8962;52.538;13.266;2023-04-06T10:42:23;5.85;;;3.00;;
17686;SDS011;8962;52.538;13.266;2023-04-06T10:44:51;4.40;;;3.00;;
17686;SDS011;8962;52.538;13.266;2023-04-06T10:47:18;6.60;;;3.00;;
17686;SDS011;8962;52.538;13.266;2023-04-06T10:49:45;6.07;;;3.10;;
17686;SDS011;8962;52.538;13.266;2023-04-06T10:52:14;4.93;;;3.13;;
17686;SDS011;8962;52.538;13.266;2023-04-06T10:54:42;4.35;;;3.40;;
17686;SDS011;8962;52.538;13.266;2023-04-06T10:57:10;5.25;;;2.90;;
17686;SDS011;8962;52.538;13.266;2023-04-06T10:59:41;6.28;;;3.50;;
17686;SDS011;8962;52.538;13.266;2023-04-06T11:02:18;6.85;;;3.58;;
17686;SDS011;8962;52.538;13.266;2023-04-06T11:04:54;7.55;;;3.65;;
17686;SDS011;8962;52.538;13.266;2023-04-06T11:07:24;6.75;;;3.20;;
17686;SDS011;8962;52.538;13.266;2023-04-06T11:09:52;9.13;;;4.55;;
17686;SDS011;8962;52.538;13.266;2023-04-06T11:12:23;16.50;;;5.15;;
17686;SDS011;8962;52.538;13.266;2023-04-06T11:14:54;7.13;;;3.88;;
17686;SDS011;8962;52.538;13.266;2023-04-06T11:17:26;6.03;;;3.47;;
17686;SDS011;8962;52.538;13.266;2023-04-06T11:19:54;5.78;;;3.45;;
17686;SDS011;8962;52.538;13.266;2023-04-06T11:22:21;7.18;;;3.53;;
17686;SDS011;8962;52.538;13.266;2023-04-06T11:24:50;5.78;;;3.40;;
17686;SDS011;8962;52.538;13.266;2023-04-06T11:27:18;6.32;;;2.97;;
17686;SDS011;8962;52.538;13.266;2023-04-06T11:29:46;6.50;;;3.33;;
17686;SDS011;8962;52.538;13.266;2023-04-06T11:32:21;8.30;;;3.58;;
17686;SDS011;8962;52.538;13.266;2023-04-06T11:34:49;7.30;;;3.50;;
17686;SDS011;8962;52.538;13.266;2023-04-06T11:37:17;6.03;;;3.20;;
17686;SDS011;8962;52.538;13.266;2023-04-06T11:39:46;4.25;;;3.20;;
17686;SDS011;8962;52.538;13.266;2023-04-06T11:42:23;4.70;;;3.53;;
17686;SDS011;8962;52.538;13.266;2023-04-06T11:44:51;7.05;;;4.05;;
17686;SDS011;8962;52.538;13.266;2023-04-06T11:47:20;5.30;;;3.90;;
17686;SDS011;8962;52.538;13.266;2023-04-06T11:49:54;4.82;;;3.35;;
17686;SDS011;8962;52.538;13.266;2023-04-06T11:52:25;5.85;;;3.17;;
17686;SDS011;8962;52.538;13.266;2023-04-06T11:54:53;4.15;;;3.15;;
17686;SDS011;8962;52.538;13.266;2023-04-06T11:57:24;5.25;;;3.40;;
17686;SDS011;8962;52.538;13.266;2023-04-06T11:59:51;3.97;;;2.80;;
17686;SDS011;8962;52.538;13.266;2023-04-06T12:02:19;5.57;;;2.80;;
17686;SDS011;8962;52.538;13.266;2023-04-06T12:04:46;4.72;;;3.08;;
17686;SDS011;8962;52.538;13.266;2023-04-06T12:07:13;4.32;;;3.30;;
17686;SDS011;8962;52.538;13.266;2023-04-06T12:09:41;3.95;;;2.60;;
17686;SDS011;8962;52.538;13.266;2023-04-06T12:12:09;3.63;;;2.72;;
17686;SDS011;8962;52.538;13.266;2023-04-06T12:14:38;6.43;;;2.95;;
17686;SDS011;8962;52.538;13.266;2023-04-06T12:17:05;8.07;;;3.58;;
17686;SDS011;8962;52.538;13.266;2023-04-06T12:19:32;5.95;;;3.35;;
17686;SDS011;8962;52.538;13.266;2023-04-06T12:22:00;5.13;;;3.65;;
17686;SDS011;8962;52.538;13.266;2023-04-06T12:24:27;4.00;;;3.10;;
17686;SDS011;8962;52.538;13.266;2023-04-06T12:26:55;5.32;;;3.35;;
17686;SDS011;8962;52.538;13.266;2023-04-06T12:29:23;4.80;;;3.70;;
17686;SDS011;8962;52.538;13.266;2023-04-06T12:31:53;4.25;;;3.28;;
17686;SDS011;8962;52.538;13.266;2023-04-06T12:34:20;4.28;;;3.15;;
17686;SDS011;8962;52.538;13.266;2023-04-06T12:36:47;3.47;;;3.00;;
17686;SDS011;8962;52.538;13.266;2023-04-06T12:39:15;6.18;;;3.28;;
17686;SDS011;8962;52.538;13.266;2023-04-06T12:41:42;5.97;;;3.30;;
17686;SDS011;8962;52.538;13.266;2023-04-06T12:44:10;3.90;;;2.90;;
17686;SDS011;8962;52.538;13.266;2023-04-06T12:46:37;3.53;;;2.75;;
17686;SDS011;8962;52.538;13.266;2023-04-06T12:49:06;4.72;;;3.75;;
17686;SDS011;8962;52.538;13.266;2023-04-06T12:51:33;5.40;;;3.25;;
17686;SDS011;8962;52.538;13.266;2023-04-06T12:54:01;3.97;;;2.97;;
17686;SDS011;8962;52.538;13.266;2023-04-06T12:56:28;3.10;;;2.80;;
17686;SDS011;8962;52.538;13.266;2023-04-06T12:58:56;4.53;;;3.00;;
17686;SDS011;8962;52.538;13.266;2023-04-06T13:01:23;4.72;;;2.97;;
17686;SDS011;8962;52.538;13.266;2023-04-06T13:03:53;3.50;;;2.70;;
17686;SDS011;8962;52.538;13.266;2023-04-06T13:06:21;4.22;;;3.30;;
17686;SDS011;8962;52.538;13.266;2023-04-06T13:08:52;5.65;;;3.17;;
17686;SDS011;8962;52.538;13.266;2023-04-06T13:11:20;4.28;;;3.10;;
17686;SDS011;8962;52.538;13.266;2023-04-06T13:13:49;4.22;;;3.30;;
17686;SDS011;8962;52.538;13.266;2023-04-06T13:16:16;3.30;;;3.00;;
17686;SDS011;8962;52.538;13.266;2023-04-06T13:18:44;3.65;;;3.10;;
17686;SDS011;8962;52.538;13.266;2023-04-06T13:21:13;3.97;;;3.25;;
17686;SDS011;8962;52.538;13.266;2023-04-06T13:23:43;8.90;;;5.35;;
17686;SDS011;8962;52.538;13.266;2023-04-06T13:26:10;7.80;;;5.07;;
17686;SDS011;8962;52.538;13.266;2023-04-06T13:28:38;4.72;;;3.80;;
17686;SDS011;8962;52.538;13.266;2023-04-06T13:31:05;4.78;;;2.63;;
17686;SDS011;8962;52.538;13.266;2023-04-06T13:33:33;4.45;;;3.13;;
17686;SDS011;8962;52.538;13.266;2023-04-06T13:36:01;5.00;;;3.05;;
17686;SDS011;8962;52.538;13.266;2023-04-06T13:38:29;4.97;;;3.35;;
17686;SDS011;8962;52.538;13.266;2023-04-06T13:40:58;3.78;;;3.30;;
17686;SDS011;8962;52.538;13.266;2023-04-06T13:43:25;6.00;;;3.35;;
17686;SDS011;8962;52.538;13.266;2023-04-06T13:45:54;4.35;;;3.42;;
17686;SDS011;8962;52.538;13.266;2023-04-06T13:48:23;5.18;;;3.30;;
17686;SDS011;8962;52.538;13.266;2023-04-06T13:50:51;3.83;;;3.38;;
17686;SDS011;8962;52.538;13.266;2023-04-06T13:53:18;4.15;;;3.17;;
17686;SDS011;8962;52.538;13.266;2023-04-06T13:55:51;6.55;;;3.22;;
17686;SDS011;8962;52.538;13.266;2023-04-06T13:58:21;4.57;;;3.08;;
17686;SDS011;8962;52.538;13.266;2023-04-06T14:00:48;3.15;;;2.70;;
17686;SDS011;8962;52.538;13.266;2023-04-06T14:03:15;3.17;;;2.85;;
17686;SDS011;8962;52.538;13.266;2023-04-06T14:05:43;3.67;;;2.85;;
17686;SDS011;8962;52.538;13.266;2023-04-06T14:08:12;5.75;;;3.35;;
17686;SDS011;8962;52.538;13.266;2023-04-06T14:10:39;3.70;;;2.88;;
17686;SDS011;8962;52.538;13.266;2023-04-06T14:13:07;3.92;;;3.05;;
17686;SDS011;8962;52.538;13.266;2023-04-06T14:15:36;6.18;;;3.50;;
17686;SDS011;8962;52.538;13.266;2023-04-06T14:18:03;5.07;;;3.17;;
17686;SDS011;8962;52.538;13.266;2023-04-06T14:20:31;5.88;;;3.42;;
17686;SDS011;8962;52.538;13.266;2023-04-06T14:22:59;4.95;;;3.40;;
17686;SDS011;8962;52.538;13.266;2023-04-06T14:25:26;4.18;;;3.35;;
17686;SDS011;8962;52.538;13.266;2023-04-06T14:27:56;7.38;;;4.63;;
17686;SDS011;8962;52.538;13.266;2023-04-06T14:30:23;8.05;;;3.47;;
17686;SDS011;8962;52.538;13.266;2023-04-06T14:32:51;5.05;;;3.20;;
17686;SDS011;8962;52.538;13.266;2023-04-06T14:35:19;4.80;;;3.28;;
17686;SDS011;8962;52.538;13.266;2023-04-06T14:37:46;4.13;;;2.97;;
17686;SDS011;8962;52.538;13.266;2023-04-06T14:40:13;4.93;;;3.53;;
17686;SDS011;8962;52.538;13.266;2023-04-06T14:42:40;4.47;;;3.38;;
17686;SDS011;8962;52.538;13.266;2023-04-06T14:45:07;4.38;;;3.75;;
17686;SDS011;8962;52.538;13.266;2023-04-06T14:47:35;5.65;;;3.78;;
17686;SDS011;8962;52.538;13.266;2023-04-06T14:50:04;4.57;;;3.65;;
17686;SDS011;8962;52.538;13.266;2023-04-06T14:52:32;6.20;;;3.40;;
17686;SDS011;8962;52.538;13.266;2023-04-06T14:55:00;6.03;;;3.03;;
17686;SDS011;8962;52.538;13.266;2023-04-06T14:57:27;7.50;;;4.03;;
17686;SDS011;8962;52.538;13.266;2023-04-06T14:59:54;7.65;;;3.72;;